To NAV CANADA Home Page Login to a new session Search on AWWS site Feedback and Comments Disclaimer Vers la page française équivalente Tips FAQ What's new on the site To the Forecasts and Observations / NOTAM section To "File a Flight Plan" website Publications and other links Update of the User's profile FIC Telephone Numbers My Weather Data Folder Route Weather Data Regional Weather Data Local Weather Data To the Forecasts and Observations / NOTAM section
Request Generated 08/30/2016 at 22:30:12 UTC . Weather information available at that time is displayed.

METAR/TAF

CARTWRIGHT/NL    

SPECI CWCA 302222Z 31007KT 15SM FEW015 BKN020 OVC070 08/07 A2973 RMK
SC2SC4AS2 SLP068=
METAR CWCA 302200Z 33008KT 12SM -RA BKN015 OVC070 08/07 A2973 RMK
SC5AS3 SLP069=
SPECI CWCA 302154Z 33011G19KT 12SM -RA BKN015 OVC070 08/07 A2973 RMK
SC5AS3 SLP069=
SPECI CWCA 302144Z 35013G19KT 300V360 6SM RA OVC015 08/07 A2973 RMK
SC8 WSHFT 2132 PRESRR SLP068=
SPECI CWCA 302126Z 31005KT 15SM -RA BKN015 BKN030 OVC070 10/07 A2971
RMK SC5CU1AC2 SLP063=
METAR CWCA 302100Z 32006KT 15SM BKN020 BKN030 BKN070 10/06 A2971 RMK
SC5CU1AC1 SLP064=
METAR CWCA 302000Z 35008KT 15SM BKN020 BKN070 10/06 A2972 RMK SC6AC1
SLP067=

TAF CYCA 301938Z 3020/3108 ADVISORY OFFSITE 34012KT P6SM -SHRA OVC015
TEMPO 3020/3108 P6SM NSW OVC025 PROB30 3107/3108 OVC007
RMK NXT FCST BY 310200Z=
Your time UTC time
Weather data provided by Environment Canada and NAV CANADA